createdAt,value
2022-11-14T00:00:27.116Z,0.00
2022-11-14T00:01:27.097Z,0.00
2022-11-14T00:02:27.143Z,0.00
2022-11-14T00:03:27.102Z,0.00
2022-11-14T00:04:29.710Z,0.00
2022-11-14T00:05:27.020Z,0.00
2022-11-14T00:06:27.066Z,0.00
2022-11-14T00:07:27.131Z,0.00
2022-11-14T00:08:27.274Z,0.00
2022-11-14T00:09:27.024Z,0.00
2022-11-14T00:10:27.097Z,0.00
2022-11-14T00:11:26.981Z,0.00
2022-11-14T00:12:26.945Z,0.00
2022-11-14T00:13:26.967Z,0.00
2022-11-14T00:14:26.933Z,0.00
2022-11-14T00:15:26.941Z,0.00
2022-11-14T00:16:26.940Z,0.00
2022-11-14T00:17:26.933Z,0.00
2022-11-14T00:18:27.371Z,0.00
2022-11-14T00:19:26.962Z,0.00
2022-11-14T00:20:26.928Z,0.00
2022-11-14T00:21:26.904Z,0.00
2022-11-14T00:22:26.892Z,0.00
2022-11-14T00:23:26.842Z,0.00
2022-11-14T00:24:26.877Z,0.00
2022-11-14T00:25:26.869Z,0.00
2022-11-14T00:26:26.812Z,0.00
2022-11-14T00:27:26.824Z,0.00
2022-11-14T00:28:27.069Z,0.00
2022-11-14T00:29:26.785Z,0.00
2022-11-14T00:30:26.781Z,0.00
2022-11-14T00:31:26.801Z,0.00
2022-11-14T00:32:26.800Z,0.00
2022-11-14T00:33:26.749Z,0.00
2022-11-14T00:34:26.787Z,0.00
2022-11-14T00:35:26.720Z,0.00
2022-11-14T00:36:26.719Z,0.00
2022-11-14T00:37:26.740Z,0.00
2022-11-14T00:38:26.890Z,0.00
2022-11-14T00:39:26.702Z,0.00
2022-11-14T00:40:26.784Z,0.00
2022-11-14T00:41:26.660Z,0.00
2022-11-14T00:42:26.673Z,0.00
2022-11-14T00:43:26.665Z,0.00
2022-11-14T00:44:26.684Z,0.00
2022-11-14T00:45:26.633Z,0.00
2022-11-14T00:46:26.691Z,0.00
2022-11-14T00:47:26.641Z,0.00
2022-11-14T00:48:26.872Z,0.00
2022-11-14T00:49:26.715Z,0.00
2022-11-14T00:50:26.612Z,0.00
2022-11-14T00:51:26.612Z,0.00
2022-11-14T00:52:26.569Z,0.00
2022-11-14T00:53:26.580Z,0.00
2022-11-14T00:54:26.611Z,0.00
2022-11-14T00:55:26.596Z,0.00
2022-11-14T00:56:26.516Z,0.00
2022-11-14T00:57:26.518Z,0.00
2022-11-14T00:58:26.700Z,0.00
2022-11-14T00:59:26.483Z,0.00
2022-11-14T01:00:26.530Z,0.00
2022-11-14T01:01:26.514Z,0.00
2022-11-14T01:02:26.523Z,0.00
2022-11-14T01:03:26.456Z,0.00
2022-11-14T01:04:26.503Z,0.00
2022-11-14T01:05:26.421Z,0.00
2022-11-14T01:06:26.421Z,0.00
2022-11-14T01:07:26.425Z,0.00
2022-11-14T01:08:26.674Z,0.00
2022-11-14T01:09:26.503Z,0.00
2022-11-14T01:10:26.396Z,0.00
2022-11-14T01:11:26.401Z,0.00
2022-11-14T01:12:26.382Z,0.00
2022-11-14T01:13:26.376Z,0.00
2022-11-14T01:14:26.363Z,0.00
2022-11-14T01:15:26.389Z,0.00
2022-11-14T01:16:26.322Z,0.00
2022-11-14T01:17:26.342Z,0.00
2022-11-14T01:18:26.436Z,0.00
2022-11-14T01:19:26.303Z,0.00
2022-11-14T01:20:26.344Z,0.00
2022-11-14T01:21:26.323Z,0.00
2022-11-14T01:22:26.421Z,0.00
2022-11-14T01:23:26.333Z,0.00
2022-11-14T01:24:26.277Z,0.00
2022-11-14T01:25:26.252Z,0.00
2022-11-14T01:26:26.505Z,0.00
2022-11-14T01:27:26.254Z,0.00
2022-11-14T01:28:26.375Z,0.00
2022-11-14T01:29:26.303Z,0.00
2022-11-14T01:30:26.190Z,0.00
2022-11-14T01:31:26.217Z,0.00
2022-11-14T01:32:26.192Z,0.00
2022-11-14T01:33:26.175Z,0.00
2022-11-14T01:34:26.149Z,0.00
2022-11-14T01:35:26.212Z,0.00
2022-11-14T01:36:26.156Z,0.00
2022-11-14T01:37:26.114Z,0.00
2022-11-14T01:38:26.137Z,0.00
2022-11-14T01:39:26.111Z,0.00
2022-11-14T01:40:26.086Z,0.00
2022-11-14T01:41:26.094Z,0.00
2022-11-14T01:42:27.675Z,0.00
2022-11-14T01:43:26.100Z,0.00
2022-11-14T01:44:26.060Z,0.00
2022-11-14T01:45:26.122Z,0.00
2022-11-14T01:46:26.038Z,0.00
2022-11-14T01:47:26.021Z,0.00
2022-11-14T01:48:26.242Z,0.00
2022-11-14T01:49:26.063Z,0.00
2022-11-14T01:50:26.003Z,0.00
2022-11-14T01:51:25.995Z,0.00
2022-11-14T01:52:26.033Z,0.00
2022-11-14T01:53:25.963Z,0.00
2022-11-14T01:54:25.984Z,0.00
2022-11-14T01:55:26.079Z,0.00
2022-11-14T01:56:26.045Z,0.00
2022-11-14T01:57:25.936Z,0.00
2022-11-14T01:58:26.074Z,0.00
2022-11-14T01:59:25.966Z,0.00
2022-11-14T02:00:25.917Z,0.00
2022-11-14T02:01:26.136Z,0.00
2022-11-14T02:02:25.884Z,0.00
2022-11-14T02:03:25.962Z,0.00
2022-11-14T02:04:25.873Z,0.00
2022-11-14T02:05:25.897Z,0.00
2022-11-14T02:06:25.910Z,0.00
2022-11-14T02:07:25.889Z,0.00
2022-11-14T02:08:25.905Z,0.00
2022-11-14T02:09:25.826Z,0.00
2022-11-14T02:10:25.940Z,0.00
2022-11-14T02:11:25.941Z,0.00
2022-11-14T02:12:25.785Z,0.00
2022-11-14T02:13:25.825Z,0.00
2022-11-14T02:14:25.815Z,0.00
2022-11-14T02:15:25.810Z,0.00
2022-11-14T02:16:25.750Z,0.00
2022-11-14T02:17:30.372Z,0.00
2022-11-14T02:18:25.742Z,0.00
2022-11-14T02:19:25.812Z,0.00
2022-11-14T02:20:25.735Z,0.00
2022-11-14T02:21:25.816Z,0.00
2022-11-14T02:22:25.751Z,0.00
2022-11-14T02:23:25.724Z,0.00
2022-11-14T02:24:25.659Z,0.00
2022-11-14T02:25:25.645Z,0.00
2022-11-14T02:26:25.691Z,0.00
2022-11-14T02:27:25.682Z,0.00
2022-11-14T02:28:25.670Z,0.00
2022-11-14T02:29:25.640Z,0.00
2022-11-14T02:30:25.606Z,0.00
2022-11-14T02:31:25.647Z,0.00
2022-11-14T02:32:25.618Z,0.00
2022-11-14T02:33:25.626Z,0.00
2022-11-14T02:34:25.649Z,0.00
2022-11-14T02:35:25.615Z,0.00
2022-11-14T02:36:25.564Z,0.00
2022-11-14T02:37:25.558Z,0.00
2022-11-14T02:38:25.566Z,0.00
2022-11-14T02:39:25.848Z,0.00
2022-11-14T02:40:25.648Z,0.00
2022-11-14T02:41:25.499Z,0.00
2022-11-14T02:42:25.518Z,0.00
2022-11-14T02:43:25.509Z,0.00
2022-11-14T02:44:25.588Z,0.00
2022-11-14T02:45:25.505Z,0.00
2022-11-14T02:46:25.446Z,0.00
2022-11-14T02:47:25.469Z,0.00
2022-11-14T02:48:25.441Z,0.00
2022-11-14T02:49:25.448Z,0.00
2022-11-14T02:50:25.433Z,0.00
2022-11-14T02:51:25.409Z,0.00
2022-11-14T02:52:25.452Z,0.00
2022-11-14T02:53:25.473Z,0.00
2022-11-14T02:54:25.383Z,0.00
2022-11-14T02:55:25.366Z,0.00
2022-11-14T02:56:25.404Z,0.00
2022-11-14T02:57:25.364Z,0.00
2022-11-14T02:58:25.403Z,0.00
2022-11-14T02:59:25.390Z,0.00
2022-11-14T03:00:25.353Z,0.00
2022-11-14T03:01:25.363Z,0.00
2022-11-14T03:02:25.302Z,0.00
2022-11-14T03:03:25.314Z,0.00
2022-11-14T03:04:25.296Z,0.00
2022-11-14T03:05:25.297Z,0.00
2022-11-14T03:06:25.329Z,0.00
2022-11-14T03:07:25.306Z,0.00
2022-11-14T03:08:25.323Z,0.00
2022-11-14T03:09:25.255Z,0.00
2022-11-14T03:10:25.262Z,0.00
2022-11-14T03:11:25.243Z,0.00
2022-11-14T03:12:25.206Z,0.00
2022-11-14T03:13:25.213Z,0.00
2022-11-14T03:14:25.332Z,0.00
2022-11-14T03:15:25.176Z,0.00
2022-11-14T03:16:25.181Z,0.00
2022-11-14T03:17:25.157Z,0.00
2022-11-14T03:18:25.156Z,0.00
2022-11-14T03:19:25.125Z,0.00
2022-11-14T03:20:25.118Z,0.00
2022-11-14T03:21:25.129Z,0.00
2022-11-14T03:22:25.202Z,0.00
2022-11-14T03:23:25.087Z,0.00
2022-11-14T03:24:25.119Z,0.00
2022-11-14T03:25:25.087Z,0.00
2022-11-14T03:26:25.196Z,0.00
2022-11-14T03:27:25.075Z,0.00
2022-11-14T03:28:25.052Z,0.00
2022-11-14T03:29:25.061Z,0.00
2022-11-14T03:30:25.052Z,0.00
2022-11-14T03:31:25.010Z,0.00
2022-11-14T03:32:25.064Z,0.00
2022-11-14T03:33:25.011Z,0.00
2022-11-14T03:34:25.001Z,0.00
2022-11-14T03:35:25.000Z,0.00
2022-11-14T03:36:24.982Z,0.00
2022-11-14T03:37:25.059Z,0.00
2022-11-14T03:38:24.971Z,0.00
2022-11-14T03:39:25.032Z,0.00
2022-11-14T03:40:24.977Z,0.00
2022-11-14T03:41:24.931Z,0.00
2022-11-14T03:42:24.916Z,0.00
2022-11-14T03:43:24.905Z,0.00
2022-11-14T03:44:24.899Z,0.00
2022-11-14T03:45:24.899Z,0.00
2022-11-14T03:46:24.946Z,0.00
2022-11-14T03:47:24.933Z,0.00
2022-11-14T03:48:24.889Z,0.00
2022-11-14T03:49:24.859Z,0.00
2022-11-14T03:50:24.868Z,0.00
2022-11-14T03:51:24.811Z,0.00
2022-11-14T03:52:24.873Z,0.00
2022-11-14T03:53:24.809Z,0.00
2022-11-14T03:54:24.841Z,0.00
2022-11-14T03:55:24.798Z,0.00
2022-11-14T03:56:24.833Z,0.00
2022-11-14T03:57:24.751Z,0.00
2022-11-14T03:58:24.789Z,0.00
2022-11-14T03:59:24.856Z,0.00
2022-11-14T04:00:24.744Z,0.00
2022-11-14T04:01:24.804Z,0.00
2022-11-14T04:02:24.779Z,0.00
2022-11-14T04:03:24.714Z,0.00
2022-11-14T04:04:24.732Z,0.00
2022-11-14T04:05:24.704Z,0.00
2022-11-14T04:06:24.671Z,0.00
2022-11-14T04:07:24.730Z,0.00
2022-11-14T04:08:24.666Z,0.00
2022-11-14T04:09:24.706Z,0.00
2022-11-14T04:10:24.658Z,0.00
2022-11-14T04:11:24.684Z,0.00
2022-11-14T04:12:24.623Z,0.00
2022-11-14T04:13:24.613Z,0.00
2022-11-14T04:14:24.815Z,0.00
2022-11-14T04:15:24.593Z,0.00
2022-11-14T04:16:24.573Z,0.00
2022-11-14T04:17:24.820Z,0.00
2022-11-14T04:18:24.554Z,0.00
2022-11-14T04:19:24.593Z,0.00
2022-11-14T04:20:24.570Z,0.00
2022-11-14T04:21:24.581Z,0.00
2022-11-14T04:22:24.554Z,0.00
2022-11-14T04:23:24.556Z,0.00
2022-11-14T04:24:24.518Z,0.00
2022-11-14T04:25:24.531Z,0.00
2022-11-14T04:26:24.502Z,0.00
2022-11-14T04:27:24.503Z,0.00
2022-11-14T04:28:24.542Z,0.00
2022-11-14T04:29:24.449Z,0.00
2022-11-14T04:30:24.507Z,0.00
2022-11-14T04:31:24.422Z,0.00
2022-11-14T04:32:24.629Z,0.00
2022-11-14T04:33:24.410Z,0.00
2022-11-14T04:34:24.435Z,0.00
2022-11-14T04:35:24.478Z,0.00
2022-11-14T04:36:24.439Z,0.00
2022-11-14T04:37:24.374Z,0.00
2022-11-14T04:38:24.369Z,0.00
2022-11-14T04:39:24.371Z,0.00
2022-11-14T04:40:24.359Z,0.00
2022-11-14T04:41:24.325Z,0.00
2022-11-14T04:42:24.383Z,0.00
2022-11-14T04:43:24.326Z,0.00
2022-11-14T04:44:24.348Z,0.00
2022-11-14T04:45:24.372Z,0.00
2022-11-14T04:46:24.326Z,0.00
2022-11-14T04:47:24.299Z,0.00
2022-11-14T04:48:24.301Z,0.00
2022-11-14T04:49:24.288Z,0.00
2022-11-14T04:50:24.249Z,0.00
2022-11-14T04:51:24.269Z,0.00
2022-11-14T04:52:24.243Z,0.00
2022-11-14T04:53:24.281Z,0.00
2022-11-14T04:54:24.242Z,0.00
2022-11-14T04:55:24.221Z,0.00
2022-11-14T04:56:24.177Z,0.00
2022-11-14T04:57:24.206Z,0.00
2022-11-14T04:58:24.371Z,0.00
2022-11-14T04:59:24.236Z,0.00
2022-11-14T05:00:24.210Z,0.00
2022-11-14T05:01:24.362Z,0.00
2022-11-14T05:02:24.120Z,0.00
2022-11-14T05:03:24.175Z,0.00
2022-11-14T05:04:24.113Z,0.00
2022-11-14T05:05:24.091Z,0.00
2022-11-14T05:06:24.182Z,0.00
2022-11-14T05:07:24.202Z,0.00
2022-11-14T05:08:24.099Z,0.00
2022-11-14T05:09:24.057Z,0.00
2022-11-14T05:10:24.261Z,0.00
2022-11-14T05:11:28.067Z,0.00
2022-11-14T05:12:24.030Z,0.00
2022-11-14T05:13:24.030Z,0.00
2022-11-14T05:14:24.047Z,0.00
2022-11-14T05:15:24.129Z,0.00
2022-11-14T05:16:24.012Z,0.00
2022-11-14T05:17:24.114Z,0.00
2022-11-14T05:18:23.964Z,0.00
2022-11-14T05:19:23.987Z,0.00
2022-11-14T05:20:23.955Z,0.00
2022-11-14T05:21:23.970Z,0.00
2022-11-14T05:22:23.960Z,0.00
2022-11-14T05:23:23.989Z,0.00
2022-11-14T05:24:23.947Z,0.00
2022-11-14T05:25:23.910Z,0.00
2022-11-14T05:26:23.894Z,0.00
2022-11-14T05:27:23.931Z,0.00
2022-11-14T05:28:23.864Z,0.00
2022-11-14T05:29:23.867Z,0.00
2022-11-14T05:30:23.850Z,0.00
2022-11-14T05:31:23.886Z,0.00
2022-11-14T05:32:23.851Z,0.00
2022-11-14T05:33:23.839Z,0.00
2022-11-14T05:34:23.841Z,0.00
2022-11-14T05:35:23.840Z,0.00
2022-11-14T05:36:23.825Z,0.00
2022-11-14T05:37:23.791Z,0.00
2022-11-14T05:38:23.884Z,0.00
2022-11-14T05:39:23.782Z,0.00
2022-11-14T05:40:23.745Z,0.00
2022-11-14T05:41:23.753Z,0.00
2022-11-14T05:42:23.754Z,0.00
2022-11-14T05:43:23.765Z,0.00
2022-11-14T05:44:23.742Z,0.00
2022-11-14T05:45:23.815Z,0.00
2022-11-14T05:46:23.696Z,0.00
2022-11-14T05:47:23.751Z,0.00
2022-11-14T05:48:23.708Z,1.00
2022-11-14T05:49:23.842Z,0.00
2022-11-14T05:50:23.672Z,0.00
2022-11-14T05:51:23.820Z,0.00
2022-11-14T05:52:23.643Z,1.00
2022-11-14T05:53:23.586Z,1.00
2022-11-14T05:54:23.641Z,0.00
2022-11-14T05:55:25.017Z,0.00
2022-11-14T05:56:23.685Z,0.00
2022-11-14T05:57:23.617Z,0.00
2022-11-14T05:58:23.617Z,0.00
2022-11-14T05:59:23.541Z,1.00
2022-11-14T06:00:23.541Z,2.00
2022-11-14T06:01:23.526Z,1.00
2022-11-14T06:02:23.531Z,3.00
2022-11-14T06:03:23.492Z,4.00
2022-11-14T06:04:23.621Z,8.00
2022-11-14T06:05:23.525Z,6.00
2022-11-14T06:06:23.452Z,5.00
2022-11-14T06:07:23.597Z,5.00
2022-11-14T06:08:23.436Z,7.00
2022-11-14T06:09:23.486Z,12.00
2022-11-14T06:10:23.430Z,14.00
2022-11-14T06:11:23.416Z,13.00
2022-11-14T06:12:23.444Z,19.00
2022-11-14T06:13:23.397Z,22.00
2022-11-14T06:14:23.408Z,20.00
2022-11-14T06:15:23.383Z,28.00
2022-11-14T06:16:23.408Z,27.00
2022-11-14T06:17:23.511Z,36.00
2022-11-14T06:18:23.373Z,37.00
2022-11-14T06:19:23.358Z,48.00
2022-11-14T06:20:23.328Z,57.00
2022-11-14T06:21:26.342Z,67.00
2022-11-14T06:22:23.501Z,73.00
2022-11-14T06:23:25.032Z,80.00
2022-11-14T06:24:24.823Z,88.00
2022-11-14T06:25:23.283Z,101.00
2022-11-14T06:26:23.262Z,102.00
2022-11-14T06:27:23.244Z,95.00
2022-11-14T06:28:23.230Z,103.00
2022-11-14T06:29:23.273Z,124.00
2022-11-14T06:30:23.267Z,136.00
2022-11-14T06:31:23.198Z,132.00
2022-11-14T06:32:23.183Z,165.00
2022-11-14T06:33:23.199Z,158.00
2022-11-14T06:34:23.211Z,187.00
2022-11-14T06:35:23.230Z,213.00
2022-11-14T06:36:23.211Z,204.00
2022-11-14T06:37:23.492Z,226.00
2022-11-14T06:38:23.151Z,221.00
2022-11-14T06:39:23.124Z,224.00
2022-11-14T06:40:23.105Z,275.00
2022-11-14T06:41:23.141Z,261.00
2022-11-14T06:42:23.110Z,312.00
2022-11-14T06:43:23.075Z,348.00
2022-11-14T06:44:29.337Z,348.00
2022-11-14T06:45:23.204Z,430.00
2022-11-14T06:46:23.091Z,467.00
2022-11-14T06:47:23.122Z,422.00
2022-11-14T06:48:23.114Z,369.00
2022-11-14T06:49:23.144Z,489.00
2022-11-14T06:50:23.143Z,494.00
2022-11-14T06:51:23.107Z,314.00
2022-11-14T06:52:23.119Z,341.00
2022-11-14T06:53:23.065Z,306.00
2022-11-14T06:54:23.300Z,928.00
2022-11-14T06:55:25.504Z,350.00
2022-11-14T06:56:23.129Z,1098.00
2022-11-14T06:57:22.964Z,537.00
2022-11-14T06:58:23.026Z,1032.00
2022-11-14T06:59:22.965Z,733.00
2022-11-14T07:00:22.930Z,994.00
2022-11-14T07:01:22.976Z,919.00
2022-11-14T07:02:22.907Z,1098.00
2022-11-14T07:03:23.207Z,774.00
2022-11-14T07:04:22.959Z,1073.00
2022-11-14T07:05:22.900Z,978.00
2022-11-14T07:06:22.891Z,1072.00
2022-11-14T07:07:22.981Z,865.00
2022-11-14T07:08:22.835Z,753.00
2022-11-14T07:09:22.883Z,1088.00
2022-11-14T07:10:22.845Z,1441.00
2022-11-14T07:11:23.185Z,909.00
2022-11-14T07:12:23.005Z,972.00
2022-11-14T07:13:22.845Z,984.00
2022-11-14T07:14:22.828Z,1086.00
2022-11-14T07:15:22.809Z,992.00
2022-11-14T07:16:22.772Z,998.00
2022-11-14T07:17:25.946Z,1354.00
2022-11-14T07:18:22.799Z,1116.00
2022-11-14T07:19:22.845Z,1439.00
2022-11-14T07:20:22.764Z,1315.00
2022-11-14T07:21:22.834Z,1528.00
2022-11-14T07:22:22.788Z,1384.00
2022-11-14T07:23:23.162Z,1572.00
2022-11-14T07:24:22.766Z,2594.00
2022-11-14T07:25:22.849Z,2446.00
2022-11-14T07:26:22.779Z,2114.00
2022-11-14T07:27:22.714Z,2254.00
2022-11-14T07:28:22.674Z,2506.00
2022-11-14T07:29:22.788Z,2578.00
2022-11-14T07:30:22.786Z,2717.00
2022-11-14T07:31:22.660Z,2514.00
2022-11-14T07:32:22.695Z,2358.00
2022-11-14T07:33:22.765Z,2748.00
2022-11-14T07:34:22.642Z,3066.00
2022-11-14T07:35:22.952Z,2785.00
2022-11-14T07:36:22.761Z,2569.00
2022-11-14T07:37:22.986Z,2456.00
2022-11-14T07:38:22.830Z,1365.00
2022-11-14T07:39:22.857Z,3821.00
2022-11-14T07:40:22.694Z,4699.00
2022-11-14T07:41:22.551Z,4167.00
2022-11-14T07:42:22.623Z,3753.00
2022-11-14T07:43:22.655Z,3855.00
2022-11-14T07:44:22.518Z,2619.00
2022-11-14T07:45:22.824Z,2651.00
2022-11-14T07:46:22.509Z,3909.00
2022-11-14T07:47:22.580Z,3132.00
2022-11-14T07:48:22.654Z,1854.00
2022-11-14T07:49:22.850Z,4978.00
2022-11-14T07:50:22.617Z,5544.00
2022-11-14T07:51:22.712Z,3926.00
2022-11-14T07:52:22.612Z,5694.00
2022-11-14T07:53:22.556Z,5579.00
2022-11-14T07:54:22.741Z,5305.00
2022-11-14T07:55:22.622Z,6823.00
2022-11-14T07:56:22.537Z,5330.00
2022-11-14T07:57:22.727Z,4714.00
2022-11-14T07:58:22.519Z,4305.00
2022-11-14T07:59:22.558Z,3854.00
2022-11-14T08:00:22.734Z,3787.00
2022-11-14T08:01:22.777Z,3081.00
2022-11-14T08:02:27.477Z,3719.00
2022-11-14T08:03:43.949Z,4096.00
2022-11-14T08:04:22.651Z,3716.00
2022-11-14T08:05:25.955Z,5119.00
2022-11-14T08:08:49.756Z,4786.00
2022-11-14T08:08:55.538Z,4310.00
2022-11-14T08:09:57.443Z,4244.00
2022-11-14T08:10:55.923Z,4483.00
2022-11-14T08:11:56.891Z,4001.00
2022-11-14T08:13:17.460Z,4635.00
2022-11-14T08:13:58.249Z,3888.00
2022-11-14T08:15:06.552Z,3737.00
2022-11-14T08:15:55.713Z,3432.00
2022-11-14T08:16:55.857Z,2831.00
2022-11-14T08:18:16.292Z,2390.00
2022-11-14T08:20:06.774Z,1728.00
2022-11-14T08:21:07.683Z,1713.00
2022-11-14T08:22:07.680Z,1706.00
2022-11-14T08:23:07.677Z,1768.00
2022-11-14T08:24:07.744Z,1779.00
2022-11-14T08:25:07.705Z,1737.00
2022-11-14T08:26:07.667Z,2296.00
2022-11-14T08:27:07.620Z,2191.00
2022-11-14T08:28:07.621Z,2591.00
2022-11-14T08:29:07.707Z,2361.00
2022-11-14T08:30:07.596Z,2483.00
2022-11-14T08:31:07.632Z,3304.00
2022-11-14T08:32:07.582Z,2720.00
2022-11-14T08:33:07.659Z,3224.00
2022-11-14T08:34:07.570Z,5047.00
2022-11-14T08:35:07.565Z,3494.00
2022-11-14T08:36:07.564Z,4484.00
2022-11-14T08:37:07.521Z,8180.00
2022-11-14T08:38:07.531Z,8982.00
2022-11-14T08:39:07.534Z,7616.00
2022-11-14T08:40:07.498Z,5717.00
2022-11-14T08:41:07.555Z,4852.00
2022-11-14T08:42:07.540Z,3860.00
2022-11-14T08:43:07.468Z,3372.00
2022-11-14T08:44:07.466Z,3082.00
2022-11-14T08:45:07.464Z,3361.00
2022-11-14T08:46:07.467Z,3460.00
2022-11-14T08:47:07.434Z,3411.00
2022-11-14T08:48:07.427Z,3415.00
2022-11-14T08:49:07.398Z,2920.00
2022-11-14T08:50:07.421Z,3590.00
2022-11-14T08:51:07.410Z,3841.00
2022-11-14T08:52:09.279Z,3823.00
2022-11-14T08:53:07.364Z,4101.00
2022-11-14T08:54:07.363Z,3930.00
2022-11-14T08:55:07.390Z,3931.00
2022-11-14T08:56:07.363Z,3943.00
2022-11-14T08:57:07.443Z,4081.00
2022-11-14T08:58:07.355Z,4472.00
2022-11-14T08:59:07.320Z,4927.00
2022-11-14T09:00:07.325Z,5027.00
2022-11-14T09:01:07.325Z,5267.00
2022-11-14T09:02:07.272Z,5857.00
2022-11-14T09:03:07.438Z,3018.00
2022-11-14T09:04:07.440Z,9473.00
2022-11-14T09:05:07.254Z,6232.00
2022-11-14T09:06:07.262Z,5551.00
2022-11-14T09:07:07.298Z,5675.00
2022-11-14T09:08:07.210Z,5546.00
2022-11-14T09:09:07.240Z,6962.00
2022-11-14T09:10:07.228Z,5422.00
2022-11-14T09:11:09.967Z,6391.00
2022-11-14T09:12:07.194Z,9799.00
2022-11-14T09:13:07.173Z,12372.00
2022-11-14T09:14:07.349Z,14981.00
2022-11-14T09:15:07.212Z,9014.00
2022-11-14T09:16:07.155Z,13152.00
2022-11-14T09:17:07.145Z,10202.00
2022-11-14T09:18:07.234Z,10208.00
2022-11-14T09:19:07.191Z,7119.00
2022-11-14T09:20:07.178Z,8497.00
2022-11-14T09:21:07.107Z,10573.00
2022-11-14T09:22:07.207Z,10176.00
2022-11-14T09:23:07.083Z,11142.00
2022-11-14T09:24:07.125Z,8467.00
2022-11-14T09:25:07.135Z,6971.00
2022-11-14T09:26:07.084Z,4897.00
2022-11-14T09:27:07.092Z,7402.00
2022-11-14T09:28:07.034Z,6315.00
2022-11-14T09:29:07.018Z,6908.00
2022-11-14T09:30:07.017Z,5937.00
2022-11-14T09:31:07.030Z,5444.00
2022-11-14T09:32:07.042Z,4930.00
2022-11-14T09:33:11.500Z,4466.00
2022-11-14T09:34:07.094Z,4295.00
2022-11-14T09:35:06.952Z,3590.00
2022-11-14T09:36:06.935Z,3682.00
2022-11-14T09:37:06.936Z,3235.00
2022-11-14T09:38:06.988Z,4723.00
2022-11-14T09:39:06.916Z,3648.00
2022-11-14T09:40:06.930Z,3469.00
2022-11-14T09:41:06.946Z,8896.00
2022-11-14T09:42:06.879Z,5691.00
2022-11-14T09:43:06.859Z,5832.00
2022-11-14T09:44:06.880Z,10465.00
2022-11-14T09:45:06.846Z,5769.00
2022-11-14T09:46:06.857Z,16017.00
2022-11-14T09:47:06.862Z,15177.00
2022-11-14T09:48:06.874Z,11225.00
2022-11-14T09:49:06.835Z,11578.00
2022-11-14T09:50:06.842Z,11862.00
2022-11-14T09:51:06.824Z,12111.00
2022-11-14T09:52:06.795Z,11372.00
2022-11-14T09:53:06.807Z,10572.00
2022-11-14T09:54:06.799Z,10423.00
2022-11-14T09:55:06.767Z,10276.00
2022-11-14T09:56:06.753Z,10706.00
2022-11-14T09:57:06.747Z,11063.00
2022-11-14T09:58:06.724Z,11473.00
2022-11-14T09:59:06.713Z,12195.00
2022-11-14T10:00:06.721Z,11296.00
2022-11-14T10:01:09.671Z,8540.00
2022-11-14T10:02:06.722Z,14287.00
2022-11-14T10:03:06.665Z,11075.00
2022-11-14T10:04:09.493Z,10215.00
2022-11-14T10:05:06.672Z,10504.00
2022-11-14T10:06:06.643Z,10534.00
2022-11-14T10:07:06.684Z,10690.00
2022-11-14T10:08:06.630Z,11379.00
2022-11-14T10:09:06.603Z,13470.00
2022-11-14T10:10:06.690Z,12100.00
2022-11-14T10:11:06.577Z,14969.00
2022-11-14T10:12:06.613Z,10407.00
2022-11-14T10:13:06.584Z,22888.00
2022-11-14T10:14:06.589Z,17410.00
2022-11-14T10:15:06.558Z,15214.00
2022-11-14T10:16:06.619Z,11644.00
2022-11-14T10:17:10.335Z,26499.00
2022-11-14T10:18:06.548Z,25633.00
2022-11-14T10:19:10.366Z,21828.00
2022-11-14T10:20:06.497Z,15039.00
2022-11-14T10:21:06.484Z,21185.00
2022-11-14T10:22:06.476Z,14810.00
2022-11-14T10:23:06.455Z,19008.00
2022-11-14T10:24:06.459Z,12926.00
2022-11-14T10:25:06.435Z,19352.00
2022-11-14T10:26:06.432Z,12894.00
2022-11-14T10:27:06.420Z,10258.00
2022-11-14T10:28:06.457Z,8157.00
2022-11-14T10:29:06.389Z,5558.00
2022-11-14T10:30:06.429Z,23928.00
2022-11-14T10:31:06.379Z,25693.00
2022-11-14T10:32:06.390Z,19003.00
2022-11-14T10:33:06.358Z,21113.00
2022-11-14T10:34:06.383Z,17640.00
2022-11-14T10:35:06.372Z,13793.00
2022-11-14T10:36:06.420Z,18109.00
2022-11-14T10:37:06.321Z,15627.00
2022-11-14T10:38:06.394Z,15761.00
2022-11-14T10:39:06.327Z,15092.00
2022-11-14T10:40:06.340Z,12491.00
2022-11-14T10:41:06.310Z,11852.00
2022-11-14T10:42:08.027Z,10704.00
2022-11-14T10:43:06.257Z,10029.00
2022-11-14T10:44:06.284Z,10338.00
2022-11-14T10:45:06.239Z,10477.00
2022-11-14T10:46:06.277Z,10289.00
2022-11-14T10:47:06.227Z,9621.00
2022-11-14T10:48:06.223Z,9434.00
2022-11-14T10:49:06.275Z,9069.00
2022-11-14T10:50:06.179Z,9016.00
2022-11-14T10:51:06.190Z,9007.00
2022-11-14T10:52:06.180Z,9123.00
2022-11-14T10:53:06.202Z,9051.00
2022-11-14T10:54:06.136Z,8884.00
2022-11-14T10:55:06.132Z,8718.00
2022-11-14T10:56:06.131Z,9188.00
2022-11-14T10:57:06.203Z,10264.00
2022-11-14T10:58:06.106Z,11839.00
2022-11-14T10:59:06.106Z,14164.00
2022-11-14T11:00:06.090Z,14241.00
2022-11-14T11:01:06.219Z,17364.00
2022-11-14T11:02:06.052Z,19938.00
2022-11-14T11:03:06.108Z,19297.00
2022-11-14T11:04:06.146Z,20073.00
2022-11-14T11:05:06.130Z,20903.00
2022-11-14T11:06:06.021Z,21348.00
2022-11-14T11:07:06.082Z,21563.00
2022-11-14T11:08:42.464Z,17331.00
2022-11-14T11:09:06.047Z,14163.00
2022-11-14T11:10:05.981Z,12865.00
2022-11-14T11:11:06.004Z,9970.00
2022-11-14T11:12:06.045Z,14674.00
2022-11-14T11:13:06.027Z,19124.00
2022-11-14T11:14:05.932Z,14355.00
2022-11-14T11:15:05.940Z,15911.00
2022-11-14T11:16:05.915Z,22815.00
2022-11-14T11:17:05.906Z,13771.00
2022-11-14T11:18:05.891Z,21221.00
2022-11-14T11:19:05.908Z,24361.00
2022-11-14T11:20:07.635Z,25453.00
2022-11-14T11:21:05.937Z,20190.00
2022-11-14T11:22:05.849Z,23269.00
2022-11-14T11:23:05.846Z,23642.00
2022-11-14T11:24:05.843Z,23047.00
2022-11-14T11:25:05.877Z,22487.00
2022-11-14T11:26:05.823Z,22272.00
2022-11-14T11:27:05.798Z,22064.00
2022-11-14T11:28:05.787Z,21944.00
2022-11-14T11:29:05.796Z,20902.00
2022-11-14T11:30:06.370Z,21303.00
2022-11-14T11:31:05.941Z,16816.00
2022-11-14T11:32:05.749Z,12543.00
2022-11-14T11:33:05.754Z,12089.00
2022-11-14T11:34:05.744Z,16127.00
2022-11-14T11:35:05.728Z,14582.00
2022-11-14T11:36:05.788Z,15032.00
2022-11-14T11:37:05.737Z,15860.00
2022-11-14T11:38:05.686Z,18533.00
2022-11-14T11:39:05.790Z,18316.00
2022-11-14T11:40:05.665Z,19296.00
2022-11-14T11:41:08.962Z,18864.00
2022-11-14T11:42:10.072Z,18917.00
2022-11-14T11:43:37.287Z,19264.00
2022-11-14T11:44:05.630Z,19307.00
2022-11-14T11:45:05.642Z,16644.00
2022-11-14T11:46:05.603Z,17658.00
2022-11-14T11:47:05.611Z,15090.00
2022-11-14T11:48:05.581Z,13542.00
2022-11-14T11:49:05.576Z,11188.00
2022-11-14T11:50:05.575Z,10387.00
2022-11-14T11:51:05.565Z,8766.00
2022-11-14T11:52:06.367Z,8263.00
2022-11-14T11:53:05.601Z,8299.00
2022-11-14T11:54:05.796Z,7811.00
2022-11-14T11:55:05.531Z,7604.00
2022-11-14T11:56:05.499Z,8201.00
2022-11-14T11:57:05.525Z,8105.00
2022-11-14T11:58:05.491Z,7953.00
2022-11-14T11:59:05.520Z,6990.00
2022-11-14T12:00:05.529Z,13757.00
2022-11-14T12:01:05.505Z,8437.00
2022-11-14T12:02:05.542Z,13641.00
2022-11-14T12:03:05.678Z,18065.00
2022-11-14T12:04:05.499Z,21272.00
2022-11-14T12:05:05.431Z,18867.00
2022-11-14T12:06:05.402Z,17175.00
2022-11-14T12:07:05.474Z,23001.00
2022-11-14T12:08:05.378Z,24485.00
2022-11-14T12:09:05.414Z,23914.00
2022-11-14T12:10:12.612Z,23063.00
2022-11-14T12:11:05.352Z,24036.00
2022-11-14T12:12:05.377Z,24463.00
2022-11-14T12:13:05.335Z,17814.00
2022-11-14T12:14:05.342Z,13371.00
2022-11-14T12:15:05.306Z,10869.00
2022-11-14T12:16:08.881Z,11499.00
2022-11-14T12:17:05.295Z,19120.00
2022-11-14T12:18:05.286Z,14989.00
2022-11-14T12:19:05.273Z,12281.00
2022-11-14T12:20:05.271Z,10475.00
2022-11-14T12:21:05.280Z,9658.00
2022-11-14T12:22:05.234Z,8651.00
2022-11-14T12:23:05.246Z,8006.00
2022-11-14T12:24:05.279Z,7671.00
2022-11-14T12:25:05.279Z,6832.00
2022-11-14T12:26:05.265Z,6340.00
2022-11-14T12:27:05.250Z,6390.00
2022-11-14T12:28:05.276Z,6847.00
2022-11-14T12:29:05.206Z,7063.00
2022-11-14T12:30:05.207Z,6561.00
2022-11-14T12:31:05.163Z,5907.00
2022-11-14T12:32:05.147Z,5594.00
2022-11-14T12:33:05.226Z,5231.00
2022-11-14T12:34:05.118Z,4987.00
2022-11-14T12:35:05.237Z,4489.00
2022-11-14T12:36:05.095Z,4095.00
2022-11-14T12:37:05.193Z,3561.00
2022-11-14T12:38:05.079Z,3356.00
2022-11-14T12:39:05.058Z,3693.00
2022-11-14T12:40:05.078Z,4801.00